Time;durP1;ratioP1;P1;durP2;ratioP2;P2;SDS_P1;SDS_P2;PMS_P1;PMS_P2;Temp;Humidity;BMP_temperature;BMP_pressure;BME280_temperature;BME280_humidity;BME280_pressure;Samples;Min_cycle;Max_cycle;Signal;HPM_P1;HPM_P2
2023/05/25 00:02:58;;;;;;;8.07;7.20;;;;;;;16.72;58.92;94924.56;5068493;28;20085;-75
2023/05/25 00:05:26;;;;;;;12.13;7.57;;;;;;;16.77;59.23;94944.59;5067654;28;20048;-75
2023/05/25 00:07:52;;;;;;;12.05;7.68;;;;;;;16.79;58.91;94948.41;5066730;28;20119;-77
2023/05/25 00:10:17;;;;;;;8.55;7.30;;;;;;;16.80;59.04;94949.19;5066990;28;20040;-76
2023/05/25 00:12:43;;;;;;;8.05;6.90;;;;;;;16.80;59.05;94943.63;5067755;28;20021;-76
2023/05/25 00:15:09;;;;;;;7.97;6.95;;;;;;;16.72;59.19;94935.69;5067155;28;20017;-74
2023/05/25 00:17:36;;;;;;;11.95;7.65;;;;;;;16.78;59.31;94944.09;5065147;28;20060;-76
2023/05/25 00:20:06;;;;;;;9.77;7.20;;;;;;;16.75;59.55;94944.31;5067986;28;20012;-75
2023/05/25 00:22:34;;;;;;;11.10;6.53;;;;;;;16.72;59.55;94938.47;5065947;28;20031;-76
2023/05/25 00:25:00;;;;;;;8.68;7.38;;;;;;;16.73;59.49;94945.53;5066912;28;20028;-75
2023/05/25 00:27:25;;;;;;;12.05;7.43;;;;;;;16.72;59.79;94951.56;5067436;28;20021;-75
2023/05/25 00:29:51;;;;;;;12.63;7.57;;;;;;;16.68;59.64;94945.41;5054052;28;20424;-75
2023/05/25 00:32:18;;;;;;;13.07;7.25;;;;;;;16.67;59.54;94943.88;5066848;28;20032;-76
2023/05/25 00:34:43;;;;;;;9.82;6.78;;;;;;;16.62;59.43;94938.97;5048981;28;20036;-75
2023/05/25 00:37:09;;;;;;;10.68;7.47;;;;;;;16.58;59.31;94932.88;5067777;28;20392;-75
2023/05/25 00:39:34;;;;;;;8.77;7.22;;;;;;;16.56;59.25;94943.66;5065701;28;20024;-75
2023/05/25 00:42:01;;;;;;;8.68;7.05;;;;;;;16.49;59.07;94947.56;5067520;28;20051;-75
2023/05/25 00:44:26;;;;;;;9.25;7.55;;;;;;;16.49;59.17;94944.03;5066133;28;20085;-75
2023/05/25 00:46:52;;;;;;;10.15;7.30;;;;;;;16.44;59.07;94948.22;5068629;28;20024;-75
2023/05/25 00:49:19;;;;;;;11.65;7.50;;;;;;;16.37;59.17;94945.84;5067455;28;20068;-74
2023/05/25 00:54:10;;;;;;;11.02;8.43;;;;;;;16.34;59.09;94947.53;5067157;28;20442;-75
2023/05/25 00:56:37;;;;;;;12.00;8.55;;;;;;;16.31;59.17;94953.28;5066921;28;20052;-76
2023/05/25 00:59:05;;;;;;;11.77;7.75;;;;;;;16.28;59.39;94951.44;5065758;28;20111;-75
2023/05/25 01:01:38;;;;;;;9.73;7.05;;;;;;;16.27;59.55;94952.69;5065681;28;20024;-75
2023/05/25 01:04:06;;;;;;;8.50;7.45;;;;;;;16.26;59.36;94953.94;5065501;28;20040;-74
2023/05/25 01:06:32;;;;;;;11.05;7.70;;;;;;;16.24;59.45;94961.97;5049323;28;20123;-75
2023/05/25 01:09:03;;;;;;;10.15;7.22;;;;;;;16.19;59.07;94955.81;5048224;28;20039;-74
2023/05/25 01:11:34;;;;;;;7.60;6.80;;;;;;;16.08;59.21;94958.38;5065949;28;20055;-75
2023/05/25 01:14:00;;;;;;;10.07;6.90;;;;;;;16.09;59.58;94959.91;5064897;28;20024;-74
2023/05/25 01:16:26;;;;;;;10.70;7.05;;;;;;;16.07;59.46;94953.28;5065581;28;20063;-75
2023/05/25 01:18:52;;;;;;;11.23;6.65;;;;;;;16.11;59.46;94957.41;5064862;28;20064;-75
2023/05/25 01:21:40;;;;;;;7.32;6.38;;;;;;;16.06;59.64;94957.31;5065155;28;20039;-75
2023/05/25 01:24:16;;;;;;;8.82;7.05;;;;;;;16.03;59.77;94955.47;5065517;28;20096;-75
2023/05/25 01:26:46;;;;;;;8.00;6.38;;;;;;;16.02;60.05;94949.16;5048349;28;20025;-75
2023/05/25 01:29:12;;;;;;;10.15;7.68;;;;;;;16.01;60.22;94938.56;5064969;28;20032;-75
2023/05/25 01:31:39;;;;;;;9.57;7.20;;;;;;;15.98;60.19;94945.03;5064653;28;20035;-74
2023/05/25 01:34:05;;;;;;;8.82;7.30;;;;;;;15.94;60.13;94945.19;5065311;28;20029;-75
2023/05/25 01:36:31;;;;;;;9.15;6.75;;;;;;;15.93;60.14;94943.66;5051177;28;20086;-76
2023/05/25 01:38:57;;;;;;;8.23;6.82;;;;;;;15.87;60.10;94935.22;5066647;28;20140;-74
2023/05/25 01:41:23;;;;;;;9.88;7.00;;;;;;;15.89;60.11;94943.84;5065320;28;20099;-74
2023/05/25 01:43:48;;;;;;;8.73;7.35;;;;;;;15.87;60.16;94932.47;5055984;28;20056;-75
2023/05/25 01:46:21;;;;;;;9.05;6.68;;;;;;;15.84;60.27;94925.09;5065112;28;20021;-75
2023/05/25 01:49:15;;;;;;;9.73;7.03;;;;;;;15.83;60.28;94929.13;5064449;28;20029;-76
2023/05/25 01:51:51;;;;;;;8.93;6.38;;;;;;;15.79;60.16;94928.50;5048155;28;20422;-75
2023/05/25 01:54:21;;;;;;;12.73;7.45;;;;;;;15.75;60.22;94929.91;5064948;28;20056;-75
2023/05/25 01:56:48;;;;;;;10.88;6.72;;;;;;;15.73;60.27;94930.41;5064860;28;20024;-75
2023/05/25 01:59:15;;;;;;;11.73;6.95;;;;;;;15.69;60.41;94938.09;5065445;28;20104;-75
2023/05/25 02:01:41;;;;;;;10.32;7.13;;;;;;;15.69;60.61;94945.66;5064205;28;20021;-75
2023/05/25 02:04:07;;;;;;;12.82;7.93;;;;;;;15.65;60.90;94937.50;5064611;28;21086;-75
2023/05/25 02:06:34;;;;;;;11.73;7.60;;;;;;;15.62;60.83;94943.97;5064270;28;20025;-75
2023/05/25 02:09:00;;;;;;;10.35;7.13;;;;;;;15.60;60.90;94940.91;5064839;28;20035;-75
2023/05/25 02:11:26;;;;;;;9.50;7.50;;;;;;;15.61;61.22;94945.97;5064387;28;20024;-76
2023/05/25 02:14:07;;;;;;;11.85;7.38;;;;;;;15.59;61.14;94947.66;5064659;28;20539;-77
2023/05/25 02:16:33;;;;;;;10.55;7.10;;;;;;;15.55;61.28;94950.63;5052182;28;20102;-76
2023/05/25 02:18:59;;;;;;;14.55;8.20;;;;;;;15.54;61.33;94957.41;5064081;28;20032;-75
2023/05/25 02:21:25;;;;;;;10.93;8.45;;;;;;;15.51;61.65;94952.78;5064254;28;20070;-75
2023/05/25 02:23:52;;;;;;;14.68;7.70;;;;;;;15.49;61.89;94951.75;5065484;28;20029;-76
2023/05/25 02:26:18;;;;;;;13.40;7.97;;;;;;;15.50;61.89;94964.34;5064158;28;20128;-74
2023/05/25 02:28:43;;;;;;;10.70;7.60;;;;;;;15.46;61.78;94952.66;5064429;28;20177;-75
2023/05/25 02:31:09;;;;;;;13.55;8.18;;;;;;;15.46;61.78;94958.97;5064328;28;20438;-77
2023/05/25 02:33:35;;;;;;;10.43;7.80;;;;;;;15.44;61.53;94966.22;5047599;28;20036;-76
2023/05/25 02:36:00;;;;;;;9.57;7.50;;;;;;;15.40;61.24;94969.91;5065560;28;20031;-75
2023/05/25 02:38:26;;;;;;;10.23;7.65;;;;;;;15.38;61.56;94961.31;5068748;28;20564;-75
2023/05/25 02:40:51;;;;;;;10.85;7.47;;;;;;;15.36;61.50;94966.53;5072113;28;20016;-75
2023/05/25 02:43:16;;;;;;;11.60;7.50;;;;;;;15.31;61.27;94975.50;5051745;28;20376;-75
2023/05/25 02:45:43;;;;;;;12.60;7.70;;;;;;;15.25;61.48;94971.03;5068178;28;20111;-75
2023/05/25 02:48:08;;;;;;;15.68;7.47;;;;;;;15.23;61.64;94970.75;5069881;28;20050;-75
2023/05/25 02:50:34;;;;;;;11.82;6.88;;;;;;;15.19;61.56;94984.00;5069775;28;20021;-75
2023/05/25 02:53:00;;;;;;;10.77;6.35;;;;;;;15.17;61.56;94983.69;5070021;28;20024;-75
2023/05/25 02:55:25;;;;;;;11.63;7.15;;;;;;;15.12;61.48;94982.31;5069666;28;20032;-75
2023/05/25 02:57:51;;;;;;;8.52;6.97;;;;;;;15.05;61.54;94990.94;5069198;28;20023;-75
2023/05/25 03:00:19;;;;;;;9.90;7.60;;;;;;;15.04;61.60;94989.41;5069511;28;20036;-75
2023/05/25 03:02:45;;;;;;;11.35;7.20;;;;;;;15.05;61.60;94994.47;5070192;28;20426;-75
2023/05/25 03:05:11;;;;;;;14.93;8.65;;;;;;;15.04;61.84;94995.72;5069397;28;20021;-76
2023/05/25 03:07:36;;;;;;;13.23;6.70;;;;;;;15.02;61.96;94991.88;5069537;28;20020;-76
2023/05/25 03:10:02;;;;;;;10.30;7.18;;;;;;;15.01;62.12;94993.09;5051812;28;20116;-76
2023/05/25 03:12:27;;;;;;;9.13;7.18;;;;;;;15.03;61.92;94996.97;5067748;28;20060;-76
2023/05/25 03:14:53;;;;;;;9.60;7.25;;;;;;;15.02;61.84;94989.09;5068245;28;20024;-75
2023/05/25 03:17:18;;;;;;;11.43;7.85;;;;;;;15.02;61.84;94991.88;5067713;28;20502;-75
2023/05/25 03:19:43;;;;;;;8.82;7.15;;;;;;;14.97;61.83;94998.06;5067351;28;20025;-76
2023/05/25 03:22:09;;;;;;;9.40;7.13;;;;;;;14.91;62.24;94994.34;5068060;28;20097;-75
2023/05/25 03:24:35;;;;;;;11.18;7.05;;;;;;;14.90;62.27;94993.59;5069919;28;20390;-75
2023/05/25 03:27:00;;;;;;;9.73;6.95;;;;;;;14.94;62.21;94991.44;5067689;28;20020;-74
2023/05/25 03:29:26;;;;;;;10.15;7.30;;;;;;;14.96;62.26;94997.25;5067210;28;20440;-76
2023/05/25 03:31:51;;;;;;;8.77;7.65;;;;;;;14.89;62.46;94997.59;5071446;28;20021;-75
2023/05/25 03:34:17;;;;;;;8.13;7.28;;;;;;;14.91;62.59;95006.22;5069072;28;20032;-74
2023/05/25 03:36:44;;;;;;;12.15;7.90;;;;;;;14.95;62.60;95008.81;5068617;28;20016;-75
2023/05/25 03:39:10;;;;;;;12.35;7.90;;;;;;;14.93;62.43;95009.28;5067800;28;20028;-75
2023/05/25 03:41:36;;;;;;;17.75;7.78;;;;;;;14.94;62.63;95001.75;5066419;28;20029;-74
2023/05/25 03:44:01;;;;;;;13.73;8.02;;;;;;;15.00;62.34;95008.94;5068724;28;20032;-76
2023/05/25 03:46:27;;;;;;;17.85;8.57;;;;;;;15.02;62.23;95014.00;5071280;28;20040;-76
2023/05/25 03:48:52;;;;;;;15.48;8.65;;;;;;;15.02;62.44;95012.00;5068910;28;20032;-74
2023/05/25 03:51:17;;;;;;;17.63;9.38;;;;;;;15.07;62.30;95013.41;5067339;28;20033;-74
2023/05/25 03:53:43;;;;;;;18.02;8.32;;;;;;;15.07;62.66;95011.38;5066715;28;20029;-74
2023/05/25 03:56:08;;;;;;;14.38;9.57;;;;;;;15.13;62.56;95019.84;5068449;28;20114;-77
2023/05/25 03:58:34;;;;;;;20.38;9.82;;;;;;;15.16;62.44;95010.63;5049788;28;20051;-75
2023/05/25 04:00:59;;;;;;;17.15;9.35;;;;;;;15.19;62.31;95017.22;5068374;28;20118;-75
2023/05/25 04:03:26;;;;;;;20.65;10.20;;;;;;;15.20;62.34;95014.00;5067791;28;20432;-75
2023/05/25 04:05:51;;;;;;;19.20;9.32;;;;;;;15.22;62.24;95021.84;5068016;28;20029;-76
2023/05/25 04:08:18;;;;;;;12.52;9.18;;;;;;;15.27;62.01;95023.97;5068234;28;20090;-76
2023/05/25 04:10:47;;;;;;;17.15;8.90;;;;;;;15.35;62.20;95019.63;5067701;28;20056;-76
2023/05/25 04:13:12;;;;;;;14.90;9.63;;;;;;;15.40;62.25;95033.63;5068475;28;20024;-75
2023/05/25 04:15:38;;;;;;;9.98;8.25;;;;;;;15.47;62.25;95029.75;5067687;28;20035;-78
2023/05/25 04:18:03;;;;;;;18.42;8.98;;;;;;;15.55;62.35;95038.53;5066877;28;20035;-74
2023/05/25 04:20:29;;;;;;;16.65;9.50;;;;;;;15.63;62.15;95037.75;5067777;28;20109;-74
2023/05/25 04:22:55;;;;;;;17.23;9.90;;;;;;;15.73;62.33;95034.94;5066592;28;20047;-78
2023/05/25 04:25:21;;;;;;;21.95;10.38;;;;;;;15.83;61.84;95044.75;5066677;28;20098;-75
2023/05/25 04:27:48;;;;;;;13.52;8.77;;;;;;;15.89;61.86;95042.88;5071317;28;20077;-76
2023/05/25 04:30:14;;;;;;;13.57;8.77;;;;;;;15.95;61.76;95035.47;5069225;28;20032;-74
2023/05/25 04:32:40;;;;;;;17.23;11.73;;;;;;;16.04;61.73;95038.19;5067647;28;20029;-74
2023/05/25 04:35:05;;;;;;;17.67;10.90;;;;;;;16.15;61.76;95049.53;5066553;28;20453;-78
2023/05/25 04:37:32;;;;;;;16.35;10.73;;;;;;;16.25;61.25;95049.47;5066319;28;20028;-78
2023/05/25 04:39:58;;;;;;;17.40;10.32;;;;;;;16.35;61.32;95059.28;5067755;28;20311;-79
2023/05/25 04:42:24;;;;;;;20.52;11.70;;;;;;;16.43;60.94;95060.47;5067377;28;20542;-79
2023/05/25 04:44:54;;;;;;;17.75;10.88;;;;;;;16.48;61.19;95057.03;5065959;28;20116;-74
2023/05/25 04:47:20;;;;;;;15.10;10.20;;;;;;;16.57;61.01;95056.97;5066191;28;20071;-76
2023/05/25 04:49:46;;;;;;;15.77;10.10;;;;;;;16.68;60.48;95053.66;5066009;28;20028;-73
2023/05/25 04:52:11;;;;;;;19.75;11.18;;;;;;;16.68;60.23;95050.88;5072522;28;20100;-76
2023/05/25 04:54:36;;;;;;;18.45;9.85;;;;;;;16.57;61.15;95045.09;5067809;28;20035;-72
2023/05/25 04:57:02;;;;;;;11.38;9.02;;;;;;;16.66;60.40;95048.56;5067314;28;20059;-73
2023/05/25 04:59:29;;;;;;;11.77;9.73;;;;;;;16.80;59.94;95043.56;5067156;28;20032;-75
2023/05/25 05:01:55;;;;;;;14.52;9.25;;;;;;;16.84;59.95;95036.59;5066482;28;20503;-77
2023/05/25 05:04:21;;;;;;;12.63;9.85;;;;;;;16.88;59.84;95039.97;5065752;28;20071;-76
2023/05/25 05:06:47;;;;;;;15.57;9.55;;;;;;;16.93;59.52;95039.31;5066677;28;20185;-79
2023/05/25 05:09:13;;;;;;;15.45;10.27;;;;;;;17.01;59.57;95044.47;5065825;28;20566;-76
2023/05/25 05:11:38;;;;;;;15.45;10.65;;;;;;;17.04;59.38;95041.53;5066454;28;20041;-77
2023/05/25 05:14:04;;;;;;;16.40;10.00;;;;;;;17.05;59.36;95040.28;5067178;28;20502;-78
2023/05/25 05:16:33;;;;;;;12.93;9.10;;;;;;;17.10;59.52;95034.06;5049098;28;20052;-80
2023/05/25 05:19:01;;;;;;;14.00;9.13;;;;;;;17.17;59.34;95044.03;5072424;28;20595;-80
2023/05/25 05:21:26;;;;;;;13.55;9.80;;;;;;;17.20;58.91;95045.81;5070081;28;20025;-81
2023/05/25 05:23:52;;;;;;;12.95;9.50;;;;;;;17.24;58.60;95043.63;5075467;28;20031;-76
2023/05/25 05:26:20;;;;;;;13.43;9.40;;;;;;;17.28;58.47;95044.22;5065843;28;20107;-75
2023/05/25 05:28:45;;;;;;;15.35;8.43;;;;;;;17.31;58.55;95057.16;5066303;28;20082;-75
2023/05/25 05:31:11;;;;;;;10.57;7.82;;;;;;;17.37;58.08;95049.66;5064588;28;20108;-76
2023/05/25 05:33:37;;;;;;;13.25;8.25;;;;;;;17.42;57.81;95059.34;5065292;28;20348;-74
2023/05/25 05:36:03;;;;;;;10.18;7.32;;;;;;;17.50;57.79;95068.88;5064119;28;20036;-76
2023/05/25 05:38:29;;;;;;;10.07;7.18;;;;;;;17.54;57.21;95066.63;5063221;28;20118;-77
2023/05/25 05:40:55;;;;;;;11.10;6.95;;;;;;;17.64;57.18;95062.53;5066002;28;20499;-78
2023/05/25 05:43:21;;;;;;;9.88;6.50;;;;;;;17.71;57.19;95064.13;5066393;28;20029;-75
2023/05/25 05:45:46;;;;;;;9.73;6.78;;;;;;;17.76;56.88;95061.47;5065020;28;20043;-79
2023/05/25 05:48:12;;;;;;;10.20;7.20;;;;;;;17.80;56.74;95066.09;5066242;28;20032;-80
2023/05/25 05:50:38;;;;;;;8.20;6.68;;;;;;;17.92;56.63;95065.03;5066446;28;20028;-79
2023/05/25 05:53:04;;;;;;;9.48;7.60;;;;;;;17.93;56.94;95064.53;5065281;28;20032;-76
2023/05/25 05:55:29;;;;;;;10.63;7.22;;;;;;;18.00;56.80;95060.59;5065362;28;20669;-78
2023/05/25 05:57:55;;;;;;;8.65;7.38;;;;;;;18.03;57.02;95068.75;5067654;28;20458;-78
2023/05/25 06:00:20;;;;;;;9.02;7.10;;;;;;;18.03;56.61;95063.19;5066427;28;20017;-77
2023/05/25 06:02:46;;;;;;;8.50;6.25;;;;;;;18.06;56.91;95067.00;5066176;28;20087;-81
2023/05/25 06:05:11;;;;;;;12.13;7.05;;;;;;;18.23;56.19;95068.00;5066386;28;20461;-81
2023/05/25 06:07:37;;;;;;;8.45;6.93;;;;;;;18.31;56.48;95063.59;5065175;28;20020;-81
2023/05/25 06:10:04;;;;;;;8.40;6.95;;;;;;;18.43;55.88;95061.72;5065514;28;20029;-83
2023/05/25 06:12:29;;;;;;;8.48;6.93;;;;;;;18.53;55.72;95062.38;5067029;28;20517;-83
2023/05/25 06:14:54;;;;;;;7.43;6.55;;;;;;;18.58;55.53;95064.47;5066360;28;20031;-81
2023/05/25 06:17:22;;;;;;;7.93;6.15;;;;;;;18.60;55.77;95061.94;5070535;28;20062;-84
2023/05/25 06:19:48;;;;;;;9.18;6.72;;;;;;;18.57;55.54;95058.09;5075943;28;20103;-76
2023/05/25 06:22:14;;;;;;;9.18;7.38;;;;;;;18.66;55.09;95065.56;5065706;28;20517;-74
2023/05/25 06:24:39;;;;;;;12.27;7.97;;;;;;;18.81;54.82;95071.09;5066166;28;20032;-74
2023/05/25 06:27:05;;;;;;;8.63;6.95;;;;;;;18.92;54.81;95067.66;5064486;28;20017;-74
2023/05/25 06:29:31;;;;;;;9.15;6.55;;;;;;;19.13;54.45;95076.78;5064909;28;20028;-74
2023/05/25 06:31:56;;;;;;;8.98;7.22;;;;;;;19.19;54.52;95078.38;5064457;28;20372;-81
2023/05/25 06:34:22;;;;;;;14.60;7.63;;;;;;;19.33;54.23;95073.97;5046884;28;20070;-74
2023/05/25 06:36:47;;;;;;;10.60;7.10;;;;;;;19.51;54.04;95079.22;5064640;28;20024;-73
2023/05/25 06:39:13;;;;;;;10.18;7.10;;;;;;;19.63;53.40;95080.13;5065146;28;20414;-74
2023/05/25 06:41:39;;;;;;;8.10;6.47;;;;;;;19.72;53.45;95074.34;5064355;28;20083;-75
2023/05/25 06:44:07;;;;;;;11.52;7.78;;;;;;;19.81;53.08;95085.34;5065309;28;20125;-79
2023/05/25 06:46:33;;;;;;;14.25;7.90;;;;;;;19.85;53.30;95085.91;5066101;28;20021;-75
2023/05/25 06:49:00;;;;;;;12.45;7.78;;;;;;;19.90;53.12;95081.63;5063553;28;20090;-75
2023/05/25 06:51:26;;;;;;;10.15;7.55;;;;;;;20.02;52.68;95085.28;5065344;28;20573;-77
2023/05/25 06:53:54;;;;;;;10.95;7.35;;;;;;;20.00;53.31;95087.78;5064361;28;20444;-76
2023/05/25 06:56:21;;;;;;;9.82;6.93;;;;;;;19.94;53.90;95086.97;5047343;28;20075;-74
2023/05/25 06:58:47;;;;;;;9.80;7.50;;;;;;;20.10;53.32;95084.31;5065612;28;20085;-76
2023/05/25 07:01:12;;;;;;;10.32;7.13;;;;;;;20.14;53.64;95089.69;5065522;28;20164;-76
2023/05/25 07:03:38;;;;;;;8.82;6.63;;;;;;;20.25;53.66;95078.59;5070447;28;20116;-73
2023/05/25 07:06:04;;;;;;;9.05;6.35;;;;;;;20.38;53.38;95083.75;5064481;28;20021;-76
2023/05/25 07:08:30;;;;;;;9.30;6.68;;;;;;;20.55;53.35;95076.25;5065914;28;20036;-77
2023/05/25 07:10:58;;;;;;;7.38;6.63;;;;;;;20.64;53.52;95075.28;5047661;28;20024;-77
2023/05/25 07:13:24;;;;;;;8.73;6.30;;;;;;;20.71;52.76;95072.03;5068339;28;20040;-76
2023/05/25 07:15:51;;;;;;;7.88;6.30;;;;;;;20.81;52.68;95062.16;5068818;28;20166;-78
2023/05/25 07:18:17;;;;;;;8.75;5.60;;;;;;;21.07;51.67;95064.03;5065322;28;20499;-77
2023/05/25 07:20:43;;;;;;;7.60;6.00;;;;;;;21.42;51.03;95066.47;5064370;28;20092;-77
2023/05/25 07:23:10;;;;;;;8.00;5.53;;;;;;;21.46;50.78;95069.78;5064240;28;20505;-77
2023/05/25 07:25:40;;;;;;;7.70;5.43;;;;;;;21.65;51.00;95079.22;5048407;28;20026;-77
2023/05/25 07:28:06;;;;;;;6.32;5.13;;;;;;;21.76;50.71;95078.47;5051097;28;20021;-78
2023/05/25 07:30:31;;;;;;;7.38;5.50;;;;;;;21.86;50.25;95085.34;5067406;28;20036;-77
2023/05/25 07:32:57;;;;;;;5.80;5.20;;;;;;;21.99;49.28;95085.59;5067990;28;20074;-76
2023/05/25 07:35:23;;;;;;;7.30;5.20;;;;;;;22.00;49.84;95077.97;5067005;28;20028;-76
2023/05/25 07:37:59;;;;;;;6.45;5.22;;;;;;;22.25;49.41;95081.78;5067778;28;20731;-77
2023/05/25 07:40:24;;;;;;;6.13;4.68;;;;;;;22.30;48.60;95083.81;5067413;28;20067;-76
2023/05/25 07:42:50;;;;;;;6.18;3.90;;;;;;;22.39;46.82;95080.00;5068221;28;20123;-75
2023/05/25 07:45:15;;;;;;;4.57;3.85;;;;;;;22.48;45.55;95085.31;5060916;28;20056;-76
2023/05/25 07:47:41;;;;;;;6.03;4.22;;;;;;;22.47;45.36;95084.56;5069612;28;20482;-72
2023/05/25 07:50:07;;;;;;;4.43;3.30;;;;;;;22.45;45.29;95083.56;5067987;28;20031;-75
2023/05/25 07:52:32;;;;;;;5.07;3.10;;;;;;;22.58;44.57;95078.16;5066092;28;20120;-73
2023/05/25 07:54:58;;;;;;;4.72;3.30;;;;;;;22.61;44.44;95082.00;5068701;28;20104;-73
2023/05/25 07:57:24;;;;;;;5.32;3.47;;;;;;;22.55;44.33;95081.25;5066839;28;20021;-73
2023/05/25 07:59:49;;;;;;;7.15;4.00;;;;;;;22.46;44.83;95085.84;5067152;28;20041;-73
2023/05/25 08:02:15;;;;;;;8.20;3.78;;;;;;;22.38;45.21;95084.84;5068174;28;20029;-74
2023/05/25 08:04:40;;;;;;;8.05;3.90;;;;;;;22.42;45.40;95095.75;5066688;28;20068;-74
2023/05/25 08:07:06;;;;;;;4.32;3.20;;;;;;;22.43;45.21;95103.69;5067541;28;20032;-74
2023/05/25 08:09:32;;;;;;;5.72;3.53;;;;;;;22.37;45.04;95116.16;5055735;28;20391;-74
2023/05/25 08:11:58;;;;;;;7.13;3.42;;;;;;;22.27;44.85;95124.81;5068728;28;20033;-74
2023/05/25 08:14:24;;;;;;;6.82;3.13;;;;;;;22.03;45.29;95123.78;5068048;28;20099;-73
2023/05/25 08:16:51;;;;;;;5.38;2.60;;;;;;;21.79;45.52;95133.38;5068316;28;20152;-71
2023/05/25 08:19:16;;;;;;;7.65;2.90;;;;;;;21.66;45.39;95136.69;5068023;28;20051;-73
2023/05/25 08:21:42;;;;;;;5.55;3.15;;;;;;;21.58;45.87;95141.25;5066676;28;20391;-73
2023/05/25 08:24:08;;;;;;;5.93;2.88;;;;;;;21.26;45.79;95146.19;5066666;28;20024;-73
2023/05/25 08:26:35;;;;;;;4.45;2.60;;;;;;;21.16;46.54;95137.28;5065755;28;20115;-74
2023/05/25 08:29:04;;;;;;;5.00;3.03;;;;;;;20.70;47.43;95148.69;5048820;28;20518;-74
2023/05/25 08:31:31;;;;;;;7.80;3.90;;;;;;;19.80;52.29;95150.75;5066556;28;20112;-74
2023/05/25 08:33:56;;;;;;;6.25;4.20;;;;;;;19.67;53.78;95142.03;5066007;28;20090;-74
2023/05/25 08:36:22;;;;;;;7.55;4.65;;;;;;;19.27;53.86;95142.81;5066009;28;20468;-73
2023/05/25 08:38:49;;;;;;;8.73;5.40;;;;;;;18.96;57.15;95146.22;5067260;28;20021;-74
2023/05/25 08:41:15;;;;;;;7.82;4.75;;;;;;;18.87;57.35;95146.34;5065755;28;20021;-73
2023/05/25 08:43:41;;;;;;;6.30;4.68;;;;;;;18.16;58.46;95140.75;5067014;28;20047;-73
2023/05/25 08:46:07;;;;;;;9.82;5.18;;;;;;;18.25;58.24;95139.88;5066280;28;20060;-73
2023/05/25 08:48:37;;;;;;;7.80;4.60;;;;;;;17.71;57.76;95144.75;5065609;28;20090;-73
2023/05/25 08:51:07;;;;;;;10.30;4.80;;;;;;;17.71;59.17;95151.09;5066231;28;20082;-73
2023/05/25 08:53:39;;;;;;;5.72;4.47;;;;;;;17.53;58.70;95157.59;5048964;28;20089;-73
2023/05/25 08:56:25;;;;;;;6.43;4.82;;;;;;;17.33;61.99;95157.47;5066074;28;20024;-73
2023/05/25 08:59:02;;;;;;;6.05;4.45;;;;;;;17.37;61.78;95163.59;5065583;28;20055;-73
2023/05/25 09:01:32;;;;;;;6.75;4.60;;;;;;;16.90;63.81;95161.63;5065695;28;20112;-73
2023/05/25 09:03:58;;;;;;;6.28;4.40;;;;;;;17.07;63.19;95164.78;5067654;28;20114;-73
2023/05/25 09:06:25;;;;;;;9.52;4.95;;;;;;;16.54;62.88;95165.38;5067293;28;20050;-73
2023/05/25 09:08:51;;;;;;;7.90;5.22;;;;;;;16.66;64.32;95178.25;5065209;28;20029;-73
2023/05/25 09:11:17;;;;;;;7.22;4.25;;;;;;;16.71;62.49;95181.19;5065392;28;20028;-73
2023/05/25 09:13:42;;;;;;;6.28;4.90;;;;;;;16.49;64.87;95183.44;5066570;28;20052;-72
2023/05/25 09:16:07;;;;;;;8.60;5.05;;;;;;;16.60;65.38;95178.13;5065675;28;20023;-73
2023/05/25 09:18:33;;;;;;;10.50;7.07;;;;;;;16.25;65.47;95188.16;5066734;28;20552;-72
2023/05/25 09:20:59;;;;;;;13.20;9.30;;;;;;;16.30;66.66;95188.28;5066641;28;20122;-73
2023/05/25 09:23:25;;;;;;;11.32;8.25;;;;;;;16.37;65.13;95184.41;5048306;28;20032;-73
2023/05/25 09:25:50;;;;;;;8.88;7.97;;;;;;;16.16;67.89;95180.63;5065282;28;20407;-72
2023/05/25 09:28:19;;;;;;;7.57;6.82;;;;;;;16.37;67.83;95176.84;5064668;28;20033;-73
2023/05/25 09:30:44;;;;;;;8.10;6.13;;;;;;;16.20;66.39;95176.47;5064858;28;20028;-74
2023/05/25 09:33:16;;;;;;;7.72;6.47;;;;;;;16.17;67.18;95177.41;5064870;28;20531;-74
2023/05/25 09:35:42;;;;;;;7.38;4.85;;;;;;;16.31;66.20;95177.97;5064807;28;20222;-74
2023/05/25 09:38:08;;;;;;;8.82;5.25;;;;;;;16.14;66.87;95188.66;5064853;28;20186;-74
2023/05/25 09:40:34;;;;;;;6.43;5.30;;;;;;;16.31;67.95;95180.75;5064485;28;20119;-74
2023/05/25 09:43:01;;;;;;;11.13;6.32;;;;;;;16.18;67.78;95178.94;5065994;28;20031;-73
2023/05/25 09:45:27;;;;;;;8.27;6.55;;;;;;;16.10;69.50;95172.16;5066070;28;20033;-73
2023/05/25 09:47:55;;;;;;;7.22;6.00;;;;;;;16.33;67.37;95175.47;5065772;28;20138;-74
2023/05/25 09:50:21;;;;;;;10.18;6.60;;;;;;;16.16;68.25;95170.31;5063861;28;20036;-73
2023/05/25 09:52:47;;;;;;;7.95;6.70;;;;;;;16.45;68.71;95166.19;5046666;28;20395;-73
2023/05/25 09:55:14;;;;;;;7.10;5.93;;;;;;;16.14;68.28;95164.47;5064753;28;20025;-72
2023/05/25 09:57:40;;;;;;;10.07;6.18;;;;;;;16.14;69.13;95156.16;5062421;28;20025;-74
2023/05/25 10:00:07;;;;;;;7.68;6.20;;;;;;;16.46;68.34;95157.41;5067164;28;20039;-74
2023/05/25 10:02:32;;;;;;;10.73;6.55;;;;;;;16.52;68.65;95159.53;5047945;28;20025;-73
2023/05/25 10:04:58;;;;;;;7.13;6.28;;;;;;;16.86;68.74;95152.72;5071909;28;20442;-73
2023/05/25 10:07:25;;;;;;;11.32;6.22;;;;;;;16.86;65.35;95147.16;5067198;28;20028;-73
2023/05/25 10:09:52;;;;;;;8.40;6.88;;;;;;;17.03;66.96;95153.81;5064671;28;20145;-77
2023/05/25 10:12:19;;;;;;;7.55;6.03;;;;;;;17.26;66.53;95152.25;5064144;28;20621;-74
2023/05/25 10:14:45;;;;;;;6.55;5.10;;;;;;;16.82;66.05;95139.03;5064457;28;20021;-73
2023/05/25 10:17:12;;;;;;;7.82;5.20;;;;;;;17.25;65.58;95140.38;5064215;28;20024;-73
2023/05/25 10:19:53;;;;;;;10.25;6.40;;;;;;;17.56;66.79;95135.66;5069698;28;20707;-77
2023/05/25 10:22:30;;;;;;;8.48;5.82;;;;;;;17.35;65.64;95126.44;5064934;28;20028;-77
2023/05/25 10:25:10;;;;;;;6.60;5.90;;;;;;;17.82;64.38;95127.53;5064372;28;20032;-76
2023/05/25 10:27:56;;;;;;;7.55;6.07;;;;;;;17.93;61.15;95127.72;5066234;28;20433;-79
2023/05/25 10:30:22;;;;;;;8.07;5.72;;;;;;;18.05;63.54;95118.31;5065981;28;20051;-79
2023/05/25 10:32:48;;;;;;;8.95;6.22;;;;;;;18.31;63.49;95115.69;5064232;28;20028;-77
2023/05/25 10:35:13;;;;;;;9.05;6.72;;;;;;;17.78;62.68;95111.06;5064084;28;20426;-78
2023/05/25 10:37:39;;;;;;;9.27;7.43;;;;;;;18.05;63.31;95107.94;5066039;28;20558;-74
2023/05/25 10:40:07;;;;;;;8.07;6.40;;;;;;;18.39;61.59;95105.69;5065632;28;20074;-75
2023/05/25 10:42:35;;;;;;;7.25;6.35;;;;;;;18.09;62.35;95099.41;5063992;28;20020;-75
2023/05/25 10:45:02;;;;;;;9.23;5.78;;;;;;;18.37;60.64;95096.28;5064009;28;20518;-75
2023/05/25 10:47:28;;;;;;;7.70;5.90;;;;;;;18.59;59.87;95102.19;5047509;28;20031;-75
2023/05/25 10:49:56;;;;;;;7.70;5.80;;;;;;;18.07;60.88;95090.81;5047334;28;20036;-76
2023/05/25 10:52:29;;;;;;;8.82;5.65;;;;;;;18.46;60.97;95096.16;5064502;28;20032;-75
2023/05/25 10:54:56;;;;;;;7.38;5.40;;;;;;;18.54;59.69;95080.59;5067441;28;20029;-75
2023/05/25 10:57:23;;;;;;;8.25;6.32;;;;;;;18.04;63.26;95072.28;5047438;28;20040;-75
2023/05/25 10:59:58;;;;;;;8.07;6.60;;;;;;;18.35;62.90;95070.94;5065614;28;20025;-76
2023/05/25 11:02:27;;;;;;;7.88;5.60;;;;;;;18.36;59.99;95064.16;5068046;28;20032;-78
2023/05/25 11:05:25;;;;;;;11.32;7.03;;;;;;;18.11;63.32;95065.56;5068124;28;20041;-79
2023/05/25 11:07:56;;;;;;;8.70;6.47;;;;;;;18.46;62.31;95057.94;5065391;28;20041;-78
2023/05/25 11:10:40;;;;;;;9.18;5.18;;;;;;;18.15;60.60;95064.09;5069313;28;20511;-78
2023/05/25 11:13:30;;;;;;;6.63;4.75;;;;;;;18.28;61.59;95067.31;5067752;28;20040;-76
2023/05/25 11:16:16;;;;;;;7.00;5.05;;;;;;;18.58;60.55;95068.00;5067029;28;20047;-76
2023/05/25 11:18:50;;;;;;;6.95;5.20;;;;;;;18.13;61.47;95074.97;5069299;28;20020;-76
2023/05/25 11:21:20;;;;;;;7.05;5.35;;;;;;;18.39;61.86;95085.44;5067352;28;20499;-75
2023/05/25 11:24:03;;;;;;;8.27;5.47;;;;;;;18.51;62.05;95076.00;5070656;28;20030;-75
2023/05/25 11:26:32;;;;;;;7.07;5.75;;;;;;;17.96;63.13;95077.47;5068080;28;20090;-75
2023/05/25 11:29:14;;;;;;;9.02;5.40;;;;;;;18.50;62.56;95080.78;5066956;28;20021;-76
2023/05/25 11:31:40;;;;;;;9.15;5.43;;;;;;;18.51;60.05;95081.56;5050644;28;20040;-75
2023/05/25 11:34:05;;;;;;;11.98;6.78;;;;;;;18.51;62.90;95070.41;5050442;28;20017;-76